createdAt,value
2022-10-23T00:01:48.635Z,56.47
2022-10-23T00:04:20.573Z,54.80
2022-10-23T00:09:18.293Z,54.38
2022-10-23T00:11:51.234Z,55.10
2022-10-23T00:14:25.670Z,52.03
2022-10-23T00:16:55.920Z,49.22
2022-10-23T00:19:25.889Z,50.70
2022-10-23T00:21:53.215Z,51.72
2022-10-23T00:24:25.015Z,51.17
2022-10-23T00:26:52.561Z,49.58
2022-10-23T00:29:21.887Z,47.85
2022-10-23T00:31:51.821Z,48.55
2022-10-23T00:34:25.921Z,47.63
2022-10-23T00:36:56.213Z,47.03
2022-10-23T00:39:28.650Z,48.20
2022-10-23T00:41:58.849Z,49.47
2022-10-23T00:44:28.924Z,48.60
2022-10-23T00:46:59.890Z,47.20
2022-10-23T00:49:33.580Z,46.70
2022-10-23T00:52:09.625Z,49.22
2022-10-23T00:54:39.813Z,48.80
2022-10-23T00:57:12.198Z,48.42
2022-10-23T01:02:07.696Z,49.83
2022-10-23T01:04:37.832Z,47.38
2022-10-23T01:07:32.490Z,49.97
2022-10-23T01:10:30.815Z,48.13
2022-10-23T01:13:21.141Z,44.30
2022-10-23T01:16:07.750Z,44.72
2022-10-23T01:19:00.428Z,46.05
2022-10-23T01:22:05.000Z,43.50
2022-10-23T01:24:42.395Z,44.70
2022-10-23T01:27:20.947Z,42.95
2022-10-23T01:30:06.427Z,43.95
2022-10-23T01:32:49.158Z,41.10
2022-10-23T01:35:28.681Z,40.03
2022-10-23T01:38:16.583Z,41.53
2022-10-23T01:41:07.319Z,40.80
2022-10-23T01:43:52.333Z,41.70
2022-10-23T01:46:25.156Z,41.65
2022-10-23T01:48:59.106Z,43.47
2022-10-23T01:51:28.674Z,42.55
2022-10-23T01:54:09.111Z,42.83
2022-10-23T01:56:39.044Z,42.33
2022-10-23T01:59:10.874Z,43.13
2022-10-23T02:01:48.214Z,43.58
2022-10-23T02:04:22.135Z,41.65
2022-10-23T02:06:52.137Z,42.33
2022-10-23T02:09:19.411Z,42.10
2022-10-23T02:12:23.777Z,42.58
2022-10-23T02:14:56.445Z,40.72
2022-10-23T02:17:43.783Z,42.42
2022-10-23T02:20:26.106Z,43.17
2022-10-23T02:23:03.404Z,42.67
2022-10-23T02:25:44.070Z,40.78
2022-10-23T02:28:19.450Z,44.08
2022-10-23T02:30:53.633Z,42.47
2022-10-23T02:35:52.449Z,43.70
2022-10-23T02:38:42.446Z,42.47
2022-10-23T02:41:44.285Z,43.88
2022-10-23T02:44:28.141Z,46.17
2022-10-23T02:47:17.122Z,46.40
2022-10-23T02:50:03.310Z,45.45
2022-10-23T02:52:35.454Z,47.38
2022-10-23T02:58:16.718Z,47.27
2022-10-23T03:00:52.342Z,49.15
2022-10-23T03:03:30.592Z,47.03
2022-10-23T03:05:58.180Z,50.28
2022-10-23T03:08:28.579Z,49.65
2022-10-23T03:10:56.663Z,53.83
2022-10-23T03:13:26.662Z,51.80
2022-10-23T03:18:28.497Z,51.22
2022-10-23T03:20:59.230Z,49.42
2022-10-23T03:23:33.591Z,51.10
2022-10-23T03:26:01.609Z,50.97
2022-10-23T03:28:38.069Z,51.45
2022-10-23T03:31:07.678Z,50.63
2022-10-23T03:33:41.611Z,51.45
2022-10-23T03:36:13.635Z,51.25
2022-10-23T03:38:40.757Z,50.33
2022-10-23T03:41:10.558Z,49.20
2022-10-23T03:43:40.073Z,51.25
2022-10-23T03:46:09.845Z,50.08
2022-10-23T03:48:39.189Z,50.10
2022-10-23T03:51:09.322Z,51.42
2022-10-23T03:53:42.994Z,51.00
2022-10-23T03:56:10.313Z,48.97
2022-10-23T03:58:39.746Z,51.15
2022-10-23T04:01:07.610Z,48.50
2022-10-23T04:03:36.621Z,47.60
2022-10-23T04:06:09.215Z,48.47
2022-10-23T04:08:38.997Z,48.67
2022-10-23T04:11:13.205Z,47.03
2022-10-23T04:13:47.546Z,46.20
2022-10-23T04:16:19.873Z,45.97
2022-10-23T04:18:49.461Z,46.60
2022-10-23T04:21:21.180Z,46.67
2022-10-23T04:23:48.353Z,47.67
2022-10-23T04:26:23.065Z,48.92
2022-10-23T04:28:54.273Z,45.63
2022-10-23T04:31:23.960Z,47.75
2022-10-23T04:33:55.869Z,46.75
2022-10-23T04:36:45.631Z,47.47
2022-10-23T04:39:23.181Z,48.47
2022-10-23T04:44:19.710Z,49.25
2022-10-23T04:46:47.057Z,50.92
2022-10-23T04:49:16.667Z,50.25
2022-10-23T04:51:50.640Z,51.72
2022-10-23T04:54:44.185Z,49.65
2022-10-23T04:57:35.594Z,47.80
2022-10-23T05:00:10.913Z,51.90
2022-10-23T05:02:50.676Z,52.75
2022-10-23T05:05:18.484Z,52.42
2022-10-23T05:08:05.946Z,50.90
2022-10-23T05:10:49.710Z,49.70
2022-10-23T05:13:26.561Z,49.30
2022-10-23T05:15:53.760Z,48.58
2022-10-23T05:18:39.352Z,55.47
2022-10-23T05:21:16.655Z,53.45
2022-10-23T05:23:54.761Z,52.08
2022-10-23T05:26:25.266Z,50.55
2022-10-23T05:28:56.318Z,49.97
2022-10-23T05:31:26.245Z,48.78
2022-10-23T05:34:09.961Z,47.40
2022-10-23T05:36:45.472Z,46.67
2022-10-23T05:39:21.650Z,45.72
2022-10-23T05:41:54.976Z,44.20
2022-10-23T05:44:24.913Z,43.22
2022-10-23T05:47:05.329Z,45.00
2022-10-23T05:49:53.794Z,42.80
2022-10-23T05:52:51.766Z,39.67
2022-10-23T05:55:44.963Z,42.08
2022-10-23T05:58:36.960Z,40.03
2022-10-23T06:01:32.901Z,41.55
2022-10-23T06:04:05.605Z,39.85
2022-10-23T06:06:49.546Z,39.70
2022-10-23T06:09:17.163Z,38.80
2022-10-23T06:11:50.471Z,39.13
2022-10-23T06:14:23.145Z,39.42
2022-10-23T06:16:52.308Z,35.22
2022-10-23T06:19:24.626Z,35.97
2022-10-23T06:22:02.595Z,34.65
2022-10-23T06:24:45.232Z,33.03
2022-10-23T06:27:14.259Z,31.77
2022-10-23T06:29:45.131Z,27.90
2022-10-23T06:32:12.450Z,25.73
2022-10-23T06:34:41.890Z,25.13
2022-10-23T06:37:11.791Z,25.88
2022-10-23T06:39:59.191Z,25.60
2022-10-23T06:42:46.762Z,26.50
2022-10-23T06:45:36.793Z,27.83
2022-10-23T06:48:26.754Z,28.07
2022-10-23T06:51:08.470Z,28.98
2022-10-23T06:53:41.910Z,29.40
2022-10-23T06:56:29.275Z,30.88
2022-10-23T06:58:57.209Z,32.30
2022-10-23T07:01:26.934Z,32.95
2022-10-23T07:06:26.334Z,33.88
2022-10-23T07:08:57.016Z,33.55
2022-10-23T07:11:46.996Z,32.85
2022-10-23T07:14:14.868Z,33.58
2022-10-23T07:16:45.798Z,31.67
2022-10-23T07:19:13.633Z,30.08
2022-10-23T07:22:13.315Z,28.73
2022-10-23T07:24:54.842Z,28.27
2022-10-23T07:27:29.499Z,28.45
2022-10-23T07:30:00.854Z,26.58
2022-10-23T07:32:35.027Z,26.35
2022-10-23T07:35:05.780Z,27.58
2022-10-23T07:37:39.866Z,28.15
2022-10-23T07:40:08.714Z,25.85
2022-10-23T07:42:45.467Z,26.70
2022-10-23T07:47:52.740Z,27.20
2022-10-23T07:50:23.082Z,25.90
2022-10-23T07:52:52.626Z,25.17
2022-10-23T07:55:27.425Z,24.08
2022-10-23T07:58:07.741Z,22.48
2022-10-23T08:00:52.803Z,23.08
2022-10-23T08:03:32.269Z,23.23
2022-10-23T08:06:00.906Z,23.02
2022-10-23T08:08:28.764Z,24.48
2022-10-23T08:11:02.035Z,25.75
2022-10-23T08:13:35.207Z,27.10
2022-10-23T08:16:06.555Z,26.35
2022-10-23T08:18:56.375Z,27.70
2022-10-23T08:21:24.154Z,26.65
2022-10-23T08:23:58.691Z,28.02
2022-10-23T08:26:29.504Z,26.75
2022-10-23T08:29:03.639Z,27.10
2022-10-23T08:31:40.202Z,26.10
2022-10-23T08:34:24.655Z,25.25
2022-10-23T08:36:56.171Z,23.30
2022-10-23T08:39:25.790Z,25.13
2022-10-23T08:42:27.175Z,25.48
2022-10-23T08:45:12.562Z,24.05
2022-10-23T08:47:49.018Z,25.67
2022-10-23T08:51:25.633Z,25.17
2022-10-23T08:53:56.567Z,22.73
2022-10-23T08:56:32.826Z,22.63
2022-10-23T08:59:32.904Z,22.08
2022-10-23T09:02:08.222Z,21.65
2022-10-23T09:04:40.525Z,21.17
2022-10-23T09:10:14.052Z,20.15
2022-10-23T09:12:43.622Z,19.52
2022-10-23T09:15:13.672Z,21.05
2022-10-23T09:17:45.698Z,21.80
2022-10-23T09:20:21.884Z,20.85
2022-10-23T09:22:55.573Z,19.70
2022-10-23T09:25:35.030Z,20.55
2022-10-23T09:28:05.740Z,20.02
2022-10-23T09:30:41.992Z,20.08
2022-10-23T09:33:22.328Z,19.83
2022-10-23T09:35:57.168Z,18.30
2022-10-23T09:41:08.093Z,17.92
2022-10-23T09:43:37.416Z,17.92
2022-10-23T09:46:10.677Z,17.27
2022-10-23T09:48:47.207Z,16.10
2022-10-23T09:51:20.846Z,17.08
2022-10-23T09:53:51.182Z,17.70
2022-10-23T09:56:24.790Z,16.75
2022-10-23T09:59:22.489Z,17.65
2022-10-23T10:01:58.557Z,15.80
2022-10-23T10:04:44.627Z,15.90
2022-10-23T10:07:24.467Z,16.63
2022-10-23T10:09:58.123Z,16.83
2022-10-23T10:12:50.295Z,15.35
2022-10-23T10:15:19.561Z,15.55
2022-10-23T10:18:18.114Z,15.30
2022-10-23T10:20:53.035Z,15.73
2022-10-23T10:23:31.713Z,14.18
2022-10-23T10:26:26.114Z,15.38
2022-10-23T10:29:30.814Z,14.18
2022-10-23T10:32:32.215Z,14.75
2022-10-23T10:35:04.973Z,15.02
2022-10-23T10:37:45.975Z,14.48
2022-10-23T10:40:41.302Z,15.20
2022-10-23T10:43:36.763Z,16.50
2022-10-23T10:46:25.762Z,15.15
2022-10-23T10:49:10.577Z,13.90
2022-10-23T10:51:49.822Z,21.58
2022-10-23T10:54:35.756Z,22.70
2022-10-23T10:57:26.845Z,18.75
2022-10-23T10:59:57.523Z,17.17
2022-10-23T11:02:41.571Z,14.75
2022-10-23T11:05:26.930Z,14.95
2022-10-23T11:08:16.508Z,14.90
2022-10-23T11:10:50.428Z,15.25
2022-10-23T11:13:36.479Z,15.48
2022-10-23T11:16:12.464Z,15.55
2022-10-23T11:18:45.810Z,16.17
2022-10-23T11:22:07.731Z,14.80
2022-10-23T11:25:31.896Z,15.55
2022-10-23T11:28:37.214Z,14.15
2022-10-23T11:31:11.700Z,13.50
2022-10-23T11:34:11.884Z,13.68
2022-10-23T11:36:50.847Z,12.50
2022-10-23T11:39:40.098Z,15.50
2022-10-23T11:42:29.459Z,14.20
2022-10-23T11:45:01.607Z,14.18
2022-10-23T11:47:40.317Z,14.93
2022-10-23T11:50:07.725Z,13.55
2022-10-23T11:53:13.593Z,14.35
2022-10-23T11:56:17.013Z,13.27
2022-10-23T11:58:53.580Z,10.98
2022-10-23T12:01:31.886Z,12.00
2022-10-23T12:04:17.412Z,11.13
2022-10-23T12:06:59.351Z,10.60
2022-10-23T12:09:52.363Z,11.18
2022-10-23T12:12:29.616Z,9.80
2022-10-23T12:15:29.287Z,9.90
2022-10-23T12:18:15.513Z,8.50
2022-10-23T12:20:56.974Z,9.23
2022-10-23T12:23:30.988Z,10.52
2022-10-23T12:28:56.355Z,9.68
2022-10-23T12:32:05.795Z,10.07
2022-10-23T12:35:04.746Z,10.40
2022-10-23T12:38:15.088Z,10.57
2022-10-23T12:41:02.435Z,10.88
2022-10-23T12:43:36.330Z,10.40
2022-10-23T12:46:26.763Z,9.25
2022-10-23T12:48:58.121Z,9.95
2022-10-23T12:51:35.249Z,9.85
2022-10-23T12:54:03.870Z,9.68
2022-10-23T12:56:37.306Z,9.80
2022-10-23T12:59:13.602Z,10.93
2022-10-23T13:01:43.271Z,9.20
2022-10-23T13:04:44.942Z,9.05
2022-10-23T13:07:17.422Z,7.53
2022-10-23T13:09:46.367Z,7.93
2022-10-23T13:12:30.730Z,6.63
2022-10-23T13:15:03.348Z,7.20
2022-10-23T13:17:54.193Z,6.82
2022-10-23T13:20:26.588Z,6.63
2022-10-23T13:23:26.502Z,5.65
2022-10-23T13:26:00.819Z,6.32
2022-10-23T13:28:44.813Z,5.40
2022-10-23T13:31:17.187Z,5.93
2022-10-23T13:34:01.458Z,7.43
2022-10-23T13:36:34.512Z,5.85
2022-10-23T13:39:14.082Z,5.57
2022-10-23T13:41:47.067Z,4.85
2022-10-23T13:44:21.355Z,5.10
2022-10-23T13:46:56.344Z,5.03
2022-10-23T13:49:26.121Z,6.00
2022-10-23T13:51:58.890Z,4.43
2022-10-23T13:57:03.659Z,5.28
2022-10-23T13:59:33.243Z,6.60
2022-10-23T14:02:05.807Z,8.15
2022-10-23T14:04:37.676Z,7.90
2022-10-23T14:07:09.440Z,6.93
2022-10-23T14:09:39.028Z,8.18
2022-10-23T14:12:09.022Z,7.78
2022-10-23T14:14:41.119Z,8.15
2022-10-23T14:17:08.576Z,8.77
2022-10-23T14:19:38.273Z,9.00
2022-10-23T14:22:05.594Z,8.70
2022-10-23T14:24:40.443Z,9.75
2022-10-23T14:27:12.336Z,7.75
2022-10-23T14:29:42.107Z,8.40
2022-10-23T14:32:11.904Z,7.75
2022-10-23T14:34:42.466Z,8.23
2022-10-23T14:37:12.444Z,6.95
2022-10-23T14:39:39.581Z,8.77
2022-10-23T14:42:09.358Z,8.10
2022-10-23T14:44:36.622Z,8.00
2022-10-23T14:47:08.620Z,9.38
2022-10-23T14:49:40.182Z,10.60
2022-10-23T14:52:10.073Z,8.88
2022-10-23T14:54:40.120Z,9.25
2022-10-23T14:57:12.145Z,7.85
2022-10-23T14:59:39.315Z,6.32
2022-10-23T15:02:11.621Z,7.38
2022-10-23T15:04:41.526Z,7.65
2022-10-23T15:07:08.859Z,8.10
2022-10-23T15:09:39.661Z,11.15
2022-10-23T15:12:10.598Z,8.57
2022-10-23T15:14:45.097Z,11.13
2022-10-23T15:17:15.537Z,7.43
2022-10-23T15:19:47.797Z,8.88
2022-10-23T15:22:18.991Z,8.35
2022-10-23T15:24:52.134Z,8.93
2022-10-23T15:27:22.548Z,8.90
2022-10-23T15:29:52.079Z,12.38
2022-10-23T15:32:19.479Z,11.38
2022-10-23T15:34:49.698Z,13.23
2022-10-23T15:37:22.062Z,10.75
2022-10-23T15:39:52.405Z,9.90
2022-10-23T15:42:19.835Z,10.75
2022-10-23T15:44:49.786Z,10.50
2022-10-23T15:47:19.335Z,13.65
2022-10-23T15:49:46.544Z,15.55
2022-10-23T15:52:13.913Z,16.58
2022-10-23T15:54:41.157Z,16.48
2022-10-23T15:57:10.209Z,87.43
2022-10-23T15:59:37.330Z,19.70
2022-10-23T16:02:07.600Z,17.77
2022-10-23T16:04:35.409Z,21.15
2022-10-23T16:07:04.870Z,13.45
2022-10-23T16:09:34.648Z,14.30
2022-10-23T16:12:07.014Z,16.70
2022-10-23T16:14:36.701Z,13.75
2022-10-23T16:17:04.118Z,17.10
2022-10-23T16:19:37.350Z,13.65
2022-10-23T16:22:10.148Z,13.45
2022-10-23T16:27:07.049Z,14.73
2022-10-23T16:29:39.480Z,13.88
2022-10-23T16:32:06.809Z,13.55
2022-10-23T16:34:34.006Z,13.60
2022-10-23T16:37:04.041Z,14.50
2022-10-23T16:39:48.845Z,16.52
2022-10-23T16:42:48.120Z,17.63
2022-10-23T16:45:34.361Z,19.27
2022-10-23T16:48:06.800Z,17.73
2022-10-23T16:53:15.409Z,17.88
2022-10-23T16:55:42.562Z,19.63
2022-10-23T16:58:12.135Z,21.58
2022-10-23T17:00:39.572Z,22.42
2022-10-23T17:03:07.019Z,29.20
2022-10-23T17:05:35.368Z,33.50
2022-10-23T17:08:12.096Z,27.80
2022-10-23T17:10:39.221Z,250.93
2022-10-23T17:13:09.249Z,55.45
2022-10-23T17:18:10.479Z,27.40
2022-10-23T17:23:09.629Z,25.77
2022-10-23T17:25:40.804Z,22.50
2022-10-23T17:28:12.604Z,24.35
2022-10-23T17:30:44.617Z,35.38
2022-10-23T17:35:45.291Z,30.58
2022-10-23T17:38:18.125Z,31.25
2022-10-23T17:40:47.448Z,29.67
2022-10-23T17:43:19.799Z,28.90
2022-10-23T17:45:51.831Z,29.40
2022-10-23T17:48:19.162Z,30.05
2022-10-23T17:51:00.145Z,29.85
2022-10-23T17:53:29.823Z,30.02
2022-10-23T17:55:56.970Z,32.42
2022-10-23T17:58:26.394Z,33.92
2022-10-23T18:00:58.215Z,34.27
2022-10-23T18:03:25.646Z,34.85
2022-10-23T18:05:57.157Z,35.13
2022-10-23T18:08:29.501Z,50.92
2022-10-23T18:13:26.071Z,32.78
2022-10-23T18:15:53.499Z,39.85
2022-10-23T18:18:23.133Z,33.83
2022-10-23T18:20:50.178Z,35.92
2022-10-23T18:23:17.487Z,35.70
2022-10-23T18:25:45.979Z,70.15
2022-10-23T18:28:13.251Z,60.05
2022-10-23T18:30:40.352Z,42.53
2022-10-23T18:33:12.624Z,44.42
2022-10-23T18:35:50.312Z,61.28
2022-10-23T18:38:22.337Z,78.28
2022-10-23T18:43:42.633Z,52.88
2022-10-23T18:46:14.480Z,55.45
2022-10-23T18:48:50.575Z,59.70
2022-10-23T18:51:23.974Z,57.92
2022-10-23T18:53:53.661Z,59.78
2022-10-23T18:56:26.733Z,56.78
2022-10-23T18:58:58.942Z,52.22
2022-10-23T19:01:34.362Z,52.75
2022-10-23T19:04:05.102Z,52.85
2022-10-23T19:06:37.341Z,48.35
2022-10-23T19:09:13.670Z,50.38
2022-10-23T19:11:43.875Z,47.55
2022-10-23T19:14:11.403Z,46.83
2022-10-23T19:16:53.313Z,47.50
2022-10-23T19:19:27.082Z,46.22
2022-10-23T19:21:57.408Z,42.88
2022-10-23T19:24:41.625Z,44.55
2022-10-23T19:27:08.948Z,41.03
2022-10-23T19:29:42.767Z,42.22
2022-10-23T19:32:12.664Z,43.00
2022-10-23T19:34:45.391Z,91.57
2022-10-23T19:39:46.891Z,41.67
2022-10-23T19:42:14.028Z,41.45
2022-10-23T19:44:43.876Z,39.90
2022-10-23T19:47:11.536Z,37.80
2022-10-23T19:49:39.238Z,38.30
2022-10-23T19:52:06.837Z,37.60
2022-10-23T19:54:34.248Z,38.53
2022-10-23T19:57:02.417Z,36.03
2022-10-23T19:59:32.150Z,37.42
2022-10-23T20:02:02.258Z,37.60
2022-10-23T20:04:29.801Z,36.85
2022-10-23T20:06:56.938Z,35.13
2022-10-23T20:09:29.357Z,38.05
2022-10-23T20:12:00.490Z,40.45
2022-10-23T20:14:28.042Z,48.67
2022-10-23T20:17:01.612Z,53.60
2022-10-23T20:19:31.156Z,40.28
2022-10-23T20:22:03.070Z,101.72
2022-10-23T20:24:31.186Z,44.08
2022-10-23T20:27:03.002Z,42.97
2022-10-23T20:29:33.126Z,42.10
2022-10-23T20:32:02.546Z,41.30
2022-10-23T20:34:34.731Z,43.63
2022-10-23T20:37:04.134Z,46.80
2022-10-23T20:39:35.736Z,41.72
2022-10-23T20:42:07.266Z,40.88
2022-10-23T20:44:39.312Z,39.05
2022-10-23T20:47:11.182Z,38.65
2022-10-23T20:49:43.014Z,36.42
2022-10-23T20:52:10.143Z,35.33
2022-10-23T20:54:38.196Z,34.50
2022-10-23T20:57:07.403Z,36.58
2022-10-23T20:59:41.899Z,33.95
2022-10-23T21:02:13.214Z,31.50
2022-10-23T21:04:40.682Z,32.88
2022-10-23T21:07:11.424Z,32.00
2022-10-23T21:09:43.189Z,31.83
2022-10-23T21:12:12.493Z,29.70
2022-10-23T21:14:42.253Z,30.20
2022-10-23T21:17:16.677Z,29.40
2022-10-23T21:19:44.197Z,29.00
2022-10-23T21:22:11.315Z,30.58
2022-10-23T21:24:40.815Z,30.27
2022-10-23T21:27:15.253Z,28.60
2022-10-23T21:29:54.171Z,29.20
2022-10-23T21:32:21.489Z,27.58
2022-10-23T21:34:55.066Z,28.65
2022-10-23T21:37:24.987Z,29.70
2022-10-23T21:39:54.365Z,30.13
2022-10-23T21:42:23.574Z,27.73
2022-10-23T21:44:53.746Z,26.65
2022-10-23T21:47:23.780Z,28.08
2022-10-23T21:50:01.206Z,27.02
2022-10-23T21:52:34.145Z,28.02
2022-10-23T21:55:01.406Z,26.80
2022-10-23T21:57:33.397Z,27.23
2022-10-23T22:02:32.335Z,25.98
2022-10-23T22:05:04.492Z,26.48
2022-10-23T22:07:31.957Z,27.50
2022-10-23T22:10:04.347Z,28.42
2022-10-23T22:12:34.472Z,27.60
2022-10-23T22:15:07.298Z,26.65
2022-10-23T22:17:34.679Z,30.98
2022-10-23T22:20:01.974Z,26.90
2022-10-23T22:22:33.649Z,25.48
2022-10-23T22:25:03.205Z,24.50
2022-10-23T22:27:32.659Z,26.65
2022-10-23T22:30:03.828Z,26.92
2022-10-23T22:32:31.831Z,26.75
2022-10-23T22:35:01.444Z,25.40
2022-10-23T22:37:30.623Z,25.95
2022-10-23T22:40:02.534Z,24.85
2022-10-23T22:42:33.962Z,26.35
2022-10-23T22:45:04.055Z,27.05
2022-10-23T22:47:31.111Z,25.70
2022-10-23T22:49:58.337Z,26.77
2022-10-23T22:52:25.477Z,27.08
2022-10-23T22:54:52.994Z,27.63
2022-10-23T22:59:57.055Z,26.45
2022-10-23T23:02:24.095Z,27.50
2022-10-23T23:04:55.977Z,27.90
2022-10-23T23:07:23.187Z,26.48
2022-10-23T23:09:50.547Z,24.38
2022-10-23T23:12:22.414Z,22.50
2022-10-23T23:14:52.228Z,25.85
2022-10-23T23:17:23.859Z,25.05
2022-10-23T23:19:51.330Z,23.10
2022-10-23T23:22:20.661Z,23.63
2022-10-23T23:24:52.795Z,23.55
2022-10-23T23:27:22.380Z,23.52
2022-10-23T23:29:49.681Z,23.50
2022-10-23T23:32:24.339Z,25.00
2022-10-23T23:34:54.098Z,23.20
2022-10-23T23:37:24.111Z,25.42
2022-10-23T23:39:54.018Z,25.33
2022-10-23T23:42:23.580Z,25.15
2022-10-23T23:45:02.521Z,26.15
2022-10-23T23:47:42.717Z,25.92
2022-10-23T23:50:14.129Z,24.15
2022-10-23T23:52:41.347Z,23.13
2022-10-23T23:55:11.004Z,23.30
2022-10-23T23:57:40.348Z,23.42
